Time;durP1;ratioP1;P1;durP2;ratioP2;P2;SDS_P1;SDS_P2;PMS_P1;PMS_P2;Temp;Humidity;BMP_temperature;BMP_pressure;BME280_temperature;BME280_humidity;BME280_pressure;Samples;Min_cycle;Max_cycle;Signal;HPM_P1;HPM_P2
2022/10/26 00:00:04;;;;;;;91.95;29.83;;;;;;;16.42;100.00;94979.47;5039547;28;20025;-88
2022/10/26 00:02:30;;;;;;;74.07;25.80;;;;;;;16.63;100.00;94987.84;5022881;28;20029;-88
2022/10/26 00:04:55;;;;;;;85.82;28.25;;;;;;;16.23;100.00;94982.13;5057653;28;20384;-88
2022/10/26 00:07:21;;;;;;;117.93;34.78;;;;;;;16.30;100.00;94989.69;5057316;28;20032;-88
2022/10/26 00:09:46;;;;;;;106.75;33.00;;;;;;;16.38;100.00;94989.81;5022706;28;20170;-89
2022/10/26 00:12:11;;;;;;;104.30;32.17;;;;;;;16.45;100.00;94991.31;5038880;28;20496;-88
2022/10/26 00:14:37;;;;;;;79.55;24.25;;;;;;;16.72;100.00;94989.84;5039006;28;20039;-88
2022/10/26 00:17:03;;;;;;;56.13;19.52;;;;;;;16.63;100.00;94987.06;5056881;28;20037;-88
2022/10/26 00:19:32;;;;;;;63.72;21.85;;;;;;;16.60;100.00;94992.94;5039622;28;20051;-88
2022/10/26 00:21:57;;;;;;;61.20;20.83;;;;;;;16.36;100.00;94997.25;5022705;28;20025;-88
2022/10/26 00:24:23;;;;;;;55.17;19.83;;;;;;;16.56;100.00;94995.34;5039101;28;20025;-88
2022/10/26 00:26:48;;;;;;;54.17;19.05;;;;;;;16.43;100.00;94998.78;5055926;28;20037;-88
2022/10/26 00:29:14;;;;;;;49.47;16.52;;;;;;;16.31;100.00;95007.13;5056663;28;20425;-89
2022/10/26 00:31:39;;;;;;;45.35;16.70;;;;;;;16.54;100.00;95006.25;5038204;28;20025;-88
2022/10/26 00:34:05;;;;;;;54.03;17.55;;;;;;;16.51;100.00;95006.03;5039194;28;20041;-88
2022/10/26 00:36:30;;;;;;;46.70;15.85;;;;;;;16.63;100.00;95013.50;5038752;28;20082;-88
2022/10/26 00:38:57;;;;;;;43.88;13.82;;;;;;;16.53;100.00;95017.09;5038874;28;20441;-88
2022/10/26 00:41:31;;;;;;;30.58;11.52;;;;;;;16.76;100.00;95012.75;5055103;28;20033;-88
2022/10/26 00:43:57;;;;;;;43.58;12.93;;;;;;;16.67;100.00;95004.69;5022658;28;20111;-88
2022/10/26 00:46:29;;;;;;;31.50;12.07;;;;;;;16.74;100.00;95012.25;5038908;28;20052;-87
2022/10/26 00:49:15;;;;;;;29.83;11.20;;;;;;;16.79;100.00;95016.69;5038889;28;20047;-88
2022/10/26 00:51:43;;;;;;;37.08;12.80;;;;;;;16.74;100.00;95022.09;5022470;28;20028;-88
2022/10/26 00:54:19;;;;;;;42.45;12.85;;;;;;;16.67;100.00;95010.00;5022816;28;20037;-88
2022/10/26 00:56:46;;;;;;;34.75;11.77;;;;;;;16.53;100.00;95009.16;5039008;28;20124;-88
2022/10/26 00:59:12;;;;;;;45.03;13.90;;;;;;;16.26;100.00;94994.75;5038784;28;20025;-88
2022/10/26 01:01:40;;;;;;;43.80;13.48;;;;;;;16.01;100.00;95003.84;5038780;28;20417;-88
2022/10/26 01:04:08;;;;;;;30.77;11.95;;;;;;;16.37;100.00;95006.75;5038580;28;20325;-88
2022/10/26 01:06:34;;;;;;;35.78;13.45;;;;;;;16.49;100.00;95016.13;5038782;28;20044;-88
2022/10/26 01:09:00;;;;;;;48.95;13.50;;;;;;;16.08;100.00;95009.59;5038777;28;20032;-88
2022/10/26 01:11:25;;;;;;;53.83;16.83;;;;;;;15.70;100.00;95010.28;5021988;28;20429;-88
2022/10/26 01:13:52;;;;;;;46.10;16.55;;;;;;;16.35;100.00;95016.03;5055444;28;20029;-88
2022/10/26 01:16:24;;;;;;;47.25;18.38;;;;;;;16.42;100.00;95013.03;5056310;28;20074;-88
2022/10/26 01:19:41;;;;;;;36.40;17.73;;;;;;;16.53;100.00;95015.25;5038527;28;20029;-88
2022/10/26 01:22:14;;;;;;;50.92;18.02;;;;;;;16.51;100.00;95006.03;4975332;28;20126;-88
2022/10/26 01:25:03;;;;;;;57.33;20.17;;;;;;;16.43;100.00;95006.72;5014962;28;20032;-88
2022/10/26 01:27:37;;;;;;;68.20;18.88;;;;;;;16.27;100.00;95006.13;5038735;28;20025;-88
2022/10/26 01:30:44;;;;;;;51.60;17.92;;;;;;;16.37;100.00;94996.19;5038108;28;20509;-88
2022/10/26 01:33:28;;;;;;;46.38;17.35;;;;;;;16.52;100.00;94991.72;5038424;28;20037;-88
2022/10/26 01:36:03;;;;;;;49.58;18.05;;;;;;;16.49;100.00;94994.97;5038414;28;20028;-88
2022/10/26 01:39:06;;;;;;;51.50;17.52;;;;;;;16.39;100.00;94998.56;5038258;28;20079;-88
2022/10/26 01:41:35;;;;;;;43.97;17.33;;;;;;;16.34;100.00;94998.63;5040072;28;20111;-88
2022/10/26 01:44:08;;;;;;;63.90;18.63;;;;;;;15.78;100.00;94993.81;5041919;28;20071;-88
2022/10/26 01:46:42;;;;;;;50.97;17.27;;;;;;;15.85;100.00;94990.81;5025607;28;20025;-88
2022/10/26 01:49:10;;;;;;;54.85;20.35;;;;;;;16.04;100.00;94987.44;5042205;28;20025;-88
2022/10/26 01:54:08;;;;;;;38.78;14.20;;;;;;;16.24;100.00;94981.84;5057706;28;20049;-91
2022/10/26 01:56:39;;;;;;;35.70;13.43;;;;;;;16.32;100.00;94985.69;5042961;28;20017;-92
2022/10/26 01:59:20;;;;;;;40.53;13.02;;;;;;;16.22;100.00;94984.00;5041857;28;20052;-92
2022/10/26 02:01:50;;;;;;;38.83;13.55;;;;;;;15.50;100.00;94980.44;5045479;28;20037;-91
2022/10/26 02:04:41;;;;;;;41.90;15.15;;;;;;;15.92;100.00;94977.28;5058856;28;20027;-91
2022/10/26 02:07:17;;;;;;;39.03;15.05;;;;;;;16.04;100.00;94976.84;5058447;28;20021;-93
2022/10/26 02:10:06;;;;;;;42.75;14.27;;;;;;;16.00;100.00;94966.09;5034895;28;20099;-94
2022/10/26 02:13:07;;;;;;;44.10;15.40;;;;;;;15.88;100.00;94974.41;5041968;28;20017;-91
2022/10/26 02:15:33;;;;;;;39.28;14.95;;;;;;;15.97;100.00;94972.72;5045698;28;20061;-92
2022/10/26 02:18:08;;;;;;;47.67;17.20;;;;;;;15.90;100.00;94967.00;5042205;28;20424;-92
2022/10/26 02:20:47;;;;;;;;;;;;;;;;;;;;;
2022/10/26 02:23:13;;;;;;;39.90;12.23;;;;;;;15.45;100.00;94962.03;5043226;28;20031;-92
2022/10/26 02:25:43;;;;;;;48.17;12.82;;;;;;;15.93;100.00;94969.09;5041749;28;20032;-94
2022/10/26 02:28:15;;;;;;;39.70;14.25;;;;;;;15.68;100.00;94965.69;5041943;28;20420;-92
2022/10/26 02:30:41;;;;;;;42.60;13.38;;;;;;;15.89;100.00;94968.06;5041870;28;20025;-93
2022/10/26 02:33:09;;;;;;;31.75;11.90;;;;;;;16.07;100.00;94958.56;5025247;28;20032;-92
2022/10/26 02:35:39;;;;;;;44.55;11.63;;;;;;;15.67;100.00;94958.03;5041839;28;20060;-92
2022/10/26 02:38:09;;;;;;;36.03;10.50;;;;;;;15.87;100.00;94954.34;5041917;28;20040;-93
2022/10/26 02:40:46;;;;;;;;;;;;;;;;;;;;;
2022/10/26 02:43:23;;;;;;;;;;;;;;;;;;;;;
2022/10/26 02:46:03;;;;;;;24.95;5.93;;;;;;;16.16;100.00;94969.28;5042935;28;20429;-92
2022/10/26 02:48:28;;;;;;;22.42;7.28;;;;;;;15.54;100.00;94962.94;5041209;28;20028;-91
2022/10/26 02:51:17;;;;;;;45.42;7.97;;;;;;;15.67;100.00;94963.31;5024412;28;20503;-91
2022/10/26 02:54:08;;;;;;;22.23;6.70;;;;;;;15.56;100.00;94962.69;5040226;28;20064;-92
2022/10/26 02:57:00;;;;;;;23.48;6.07;;;;;;;15.92;100.00;94964.88;5041315;28;20029;-92
2022/10/26 02:59:37;;;;;;;19.80;6.07;;;;;;;16.09;100.00;94958.28;5041062;28;20032;-92
2022/10/26 03:02:03;;;;;;;20.83;6.20;;;;;;;16.07;100.00;94955.94;5041267;28;20135;-92
2022/10/26 03:04:35;;;;;;;15.90;5.32;;;;;;;16.12;100.00;94960.34;5041068;28;20025;-92
2022/10/26 03:07:01;;;;;;;26.58;5.50;;;;;;;16.01;100.00;94962.38;5041466;28;20044;-91
2022/10/26 03:09:52;;;;;;;26.77;5.53;;;;;;;15.99;100.00;94955.78;5041014;28;20040;-93
2022/10/26 03:12:20;;;;;;;17.75;5.07;;;;;;;16.09;100.00;94959.06;5040777;28;20036;-92
2022/10/26 03:14:45;;;;;;;25.92;5.43;;;;;;;15.80;100.00;94964.50;5041063;28;20028;-92
2022/10/26 03:17:11;;;;;;;15.48;5.00;;;;;;;15.92;100.00;94956.94;5024419;28;20429;-93
2022/10/26 03:19:36;;;;;;;28.00;5.30;;;;;;;16.07;100.00;94965.72;5041175;28;20040;-92
2022/10/26 03:22:04;;;;;;;21.90;5.03;;;;;;;16.07;100.00;94969.13;5024344;28;20033;-92
2022/10/26 03:24:39;;;;;;;;;;;;;;;;;;;;;
2022/10/26 03:27:07;;;;;;;21.98;5.45;;;;;;;15.74;100.00;94968.25;5041946;28;20017;-94
2022/10/26 03:29:35;;;;;;;22.77;5.60;;;;;;;15.63;100.00;94963.09;5040908;28;20417;-92
2022/10/26 03:32:02;;;;;;;22.42;5.78;;;;;;;15.65;100.00;94957.53;5040715;28;20060;-91
2022/10/26 03:34:28;;;;;;;24.85;7.53;;;;;;;15.99;100.00;94955.78;5024358;28;20059;-91
2022/10/26 03:36:53;;;;;;;28.90;7.50;;;;;;;16.04;100.00;94945.13;5040744;28;20443;-92
2022/10/26 03:39:19;;;;;;;27.50;7.60;;;;;;;16.02;100.00;94948.09;5040541;28;20063;-93
2022/10/26 03:41:54;;;;;;;;;;;;;;;;;;;;;
2022/10/26 03:44:21;;;;;;;28.52;6.00;;;;;;;15.95;100.00;94945.00;5041759;28;20021;-92
2022/10/26 03:46:56;;;;;;;;;;;;;;;;;;;;;
2022/10/26 03:49:25;;;;;;;22.55;7.32;;;;;;;15.64;100.00;94954.13;5041604;28;20039;-92
2022/10/26 03:51:57;;;;;;;21.35;6.63;;;;;;;15.84;100.00;94952.28;5039936;28;20048;-92
2022/10/26 03:54:23;;;;;;;24.02;6.00;;;;;;;15.88;100.00;94945.34;5024998;28;20036;-93
2022/10/26 03:56:52;;;;;;;15.57;5.30;;;;;;;15.88;100.00;94942.69;5040035;28;20059;-92
2022/10/26 03:59:21;;;;;;;19.13;4.90;;;;;;;16.00;100.00;94946.78;5040757;28;20132;-91
2022/10/26 04:01:54;;;;;;;26.48;5.35;;;;;;;15.86;100.00;94947.47;5023590;28;20037;-93
2022/10/26 04:04:21;;;;;;;20.35;5.05;;;;;;;15.78;100.00;94951.56;5024486;28;20437;-93
2022/10/26 04:06:47;;;;;;;25.25;5.07;;;;;;;15.78;100.00;94945.47;5040148;28;20447;-91
2022/10/26 04:09:22;;;;;;;28.27;4.88;;;;;;;16.04;100.00;94942.50;5039864;28;20033;-91
2022/10/26 04:11:48;;;;;;;19.70;4.57;;;;;;;16.11;100.00;94945.56;5040877;28;20433;-91
2022/10/26 04:14:13;;;;;;;18.65;5.20;;;;;;;16.09;100.00;94945.84;5023311;28;20124;-91
2022/10/26 04:16:49;;;;;;;17.17;4.88;;;;;;;16.14;100.00;94946.84;5023762;28;20035;-91
2022/10/26 04:19:14;;;;;;;30.23;5.03;;;;;;;16.04;100.00;94940.66;5040743;28;20425;-92
2022/10/26 04:21:39;;;;;;;25.60;4.85;;;;;;;15.90;100.00;94950.38;5039090;28;20036;-92
2022/10/26 04:24:16;;;;;;;15.50;4.60;;;;;;;16.09;100.00;94953.00;5039632;28;20425;-92
2022/10/26 04:26:44;;;;;;;17.75;4.90;;;;;;;15.93;100.00;94947.16;5040397;28;20028;-92
2022/10/26 04:29:20;;;;;;;;;;;;;;;;;;;;;
2022/10/26 04:32:06;;;;;;;;;;;;;;;;;;;;;
2022/10/26 04:34:35;;;;;;;25.38;5.45;;;;;;;16.07;100.00;94949.88;5056922;28;20033;-91
2022/10/26 04:37:10;;;;;;;25.88;5.55;;;;;;;15.77;100.00;94944.69;5039977;28;20090;-91
2022/10/26 04:39:51;;;;;;;22.20;5.28;;;;;;;16.16;100.00;94942.84;5037193;28;20040;-92
2022/10/26 04:42:19;;;;;;;25.70;4.90;;;;;;;15.97;100.00;94934.94;5050023;28;20033;-92
2022/10/26 04:44:47;;;;;;;19.67;4.75;;;;;;;15.86;100.00;94936.91;5031754;28;20033;-92
2022/10/26 04:47:14;;;;;;;21.45;5.50;;;;;;;15.47;100.00;94930.03;5039610;28;20033;-91
2022/10/26 04:49:40;;;;;;;14.57;4.57;;;;;;;15.35;100.00;94933.91;5039256;28;20037;-89
2022/10/26 04:52:05;;;;;;;17.02;4.60;;;;;;;15.63;100.00;94941.19;5022686;28;20379;-89
2022/10/26 04:54:31;;;;;;;24.98;5.55;;;;;;;15.74;100.00;94941.84;5039401;28;20033;-90
2022/10/26 04:56:58;;;;;;;16.02;4.95;;;;;;;15.74;100.00;94944.47;5022741;28;20028;-89
2022/10/26 04:59:24;;;;;;;15.02;4.68;;;;;;;15.82;100.00;94939.34;5064651;28;20064;-89
2022/10/26 05:01:50;;;;;;;23.70;4.68;;;;;;;15.52;100.00;94940.56;5038985;28;20068;-88
2022/10/26 05:04:16;;;;;;;25.58;5.57;;;;;;;15.68;100.00;94939.28;5039364;28;20036;-90
2022/10/26 05:06:41;;;;;;;17.67;5.13;;;;;;;15.86;100.00;94928.97;5039168;28;20029;-89
2022/10/26 05:09:09;;;;;;;26.13;6.05;;;;;;;15.92;100.00;94933.16;5022959;28;20029;-89
2022/10/26 05:11:36;;;;;;;20.42;5.00;;;;;;;15.82;100.00;94934.06;5039029;28;20029;-90
2022/10/26 05:14:12;;;;;;;;;;;;;;;;;;;;;
2022/10/26 05:16:43;;;;;;;30.67;5.32;;;;;;;15.81;100.00;94937.00;5042111;28;20029;-90
2022/10/26 05:19:19;;;;;;;;;;;;;;;;;;;;;
2022/10/26 05:21:54;;;;;;;;;;;;;;;;;;;;;
2022/10/26 05:24:20;;;;;;;18.92;5.10;;;;;;;15.80;100.00;94948.63;5044064;28;20031;-90
2022/10/26 05:26:48;;;;;;;21.95;5.50;;;;;;;15.68;100.00;94943.75;5042771;28;20429;-89
2022/10/26 05:29:14;;;;;;;23.13;5.57;;;;;;;15.71;100.00;94939.78;5027110;28;20087;-90
2022/10/26 05:31:39;;;;;;;17.33;4.80;;;;;;;15.82;100.00;94938.56;5025790;28;20421;-90
2022/10/26 05:34:07;;;;;;;26.00;6.03;;;;;;;15.79;100.00;94934.63;5042608;28;20063;-90
2022/10/26 05:36:32;;;;;;;21.65;5.50;;;;;;;15.67;100.00;94937.72;5043207;28;20388;-93
2022/10/26 05:38:58;;;;;;;20.55;5.28;;;;;;;15.76;100.00;94943.13;5042668;28;20033;-92
2022/10/26 05:41:24;;;;;;;25.10;5.32;;;;;;;15.80;100.00;94946.00;5042008;28;20491;-91
2022/10/26 05:43:49;;;;;;;26.17;5.85;;;;;;;15.84;100.00;94939.84;5042376;28;20083;-91
2022/10/26 05:46:15;;;;;;;20.65;6.40;;;;;;;15.99;100.00;94942.59;5042315;28;20105;-91
2022/10/26 05:48:40;;;;;;;18.60;4.95;;;;;;;15.89;100.00;94946.94;5042181;28;20033;-91
2022/10/26 05:51:15;;;;;;;19.55;4.85;;;;;;;15.83;100.00;94948.84;5058925;28;20036;-91
2022/10/26 05:53:41;;;;;;;20.98;4.50;;;;;;;15.65;100.00;94944.34;5058940;28;20036;-92
2022/10/26 05:56:33;;;;;;;20.35;4.88;;;;;;;16.00;100.00;94955.53;5057859;28;20417;-91
2022/10/26 05:58:59;;;;;;;28.02;5.13;;;;;;;15.85;100.00;94961.75;5014481;28;20041;-92
2022/10/26 06:01:36;;;;;;;23.55;4.82;;;;;;;15.95;100.00;94956.38;5040748;28;20032;-92
2022/10/26 06:04:42;;;;;;;17.83;5.25;;;;;;;16.15;100.00;94959.78;5041229;28;20036;-91
2022/10/26 06:07:20;;;;;;;27.27;4.45;;;;;;;16.04;100.00;94958.34;5057924;28;20056;-92
2022/10/26 06:09:53;;;;;;;18.17;5.38;;;;;;;15.52;100.00;94962.44;5041885;28;20349;-92
2022/10/26 06:12:28;;;;;;;13.95;4.68;;;;;;;16.03;100.00;94965.50;5024998;28;20051;-91
2022/10/26 06:14:54;;;;;;;25.70;4.78;;;;;;;16.21;100.00;94963.94;5040905;28;20417;-92
2022/10/26 06:17:25;;;;;;;16.52;5.35;;;;;;;16.33;100.00;94967.97;5040631;28;20079;-92
2022/10/26 06:20:01;;;;;;;14.75;4.28;;;;;;;16.37;100.00;94976.91;5057132;28;20037;-93
2022/10/26 06:22:44;;;;;;;17.88;4.53;;;;;;;16.60;100.00;94982.34;5035930;28;20048;-93
2022/10/26 06:25:22;;;;;;;;;;;;;;;16.80;100.00;94995.25;5057751;28;20035;-93
2022/10/26 06:28:06;;;;;;;27.02;4.50;;;;;;;16.84;100.00;94997.31;5073915;28;20352;-94
2022/10/26 06:30:33;;;;;;;31.73;4.85;;;;;;;16.46;100.00;95011.41;5040732;28;20120;-93
2022/10/26 06:33:00;;;;;;;16.65;4.13;;;;;;;16.28;100.00;95008.47;5024236;28;20345;-92
2022/10/26 06:36:07;;;;;;;15.68;5.00;;;;;;;16.58;100.00;95000.38;5024141;28;20115;-92
2022/10/26 06:38:34;;;;;;;27.05;5.05;;;;;;;16.62;100.00;95009.28;5057960;28;20043;-93
2022/10/26 06:41:00;;;;;;;13.10;4.20;;;;;;;16.85;100.00;95020.03;5023502;28;20029;-92
2022/10/26 06:43:29;;;;;;;17.17;4.25;;;;;;;17.03;100.00;95021.84;5023901;28;20032;-92
2022/10/26 06:46:13;;;;;;;18.33;4.65;;;;;;;16.82;100.00;95005.53;5040534;28;20051;-92
2022/10/26 06:49:06;;;;;;;20.85;4.90;;;;;;;16.76;100.00;95018.06;5040081;28;20029;-93
2022/10/26 06:51:38;;;;;;;20.92;4.53;;;;;;;17.03;100.00;95011.28;5023539;28;20032;-92
2022/10/26 06:54:27;;;;;;;12.75;4.78;;;;;;;17.24;100.00;95009.03;5024310;27;1379527;-91
2022/10/26 06:56:53;;;;;;;16.00;5.00;;;;;;;17.37;100.00;95007.50;5020643;28;20327;-89
2022/10/26 06:59:49;;;;;;;19.73;4.70;;;;;;;17.52;100.00;95019.63;5036720;28;20020;-89
2022/10/26 07:02:15;;;;;;;11.60;4.15;;;;;;;17.59;100.00;95029.06;5003827;28;20087;-89
2022/10/26 07:04:41;;;;;;;27.92;5.07;;;;;;;17.53;100.00;95023.84;5020274;28;20021;-90
2022/10/26 07:07:12;;;;;;;31.33;4.95;;;;;;;17.36;100.00;95021.00;5016436;28;20087;-89
2022/10/26 07:09:55;;;;;;;23.67;4.68;;;;;;;17.53;100.00;95026.50;5017175;28;20116;-90
2022/10/26 07:12:20;;;;;;;17.87;4.77;;;;;;;17.72;100.00;95030.13;5000017;28;20083;-91
2022/10/26 07:14:46;;;;;;;21.50;4.70;;;;;;;17.83;100.00;95036.78;5026164;28;20021;-90
2022/10/26 07:17:12;;;;;;;22.88;4.32;;;;;;;17.99;100.00;95039.13;5036844;28;20112;-90
2022/10/26 07:19:39;;;;;;;15.30;4.00;;;;;;;18.13;100.00;95053.16;5026120;28;20113;-90
2022/10/26 07:22:04;;;;;;;16.98;4.30;;;;;;;18.22;100.00;95059.34;5011117;28;20024;-91
2022/10/26 07:24:31;;;;;;;24.02;5.05;;;;;;;18.21;100.00;95063.03;5016724;28;20025;-90
2022/10/26 07:26:57;;;;;;;18.23;4.32;;;;;;;18.27;100.00;95065.59;5016372;28;20021;-91
2022/10/26 07:29:24;;;;;;;18.63;4.63;;;;;;;18.36;100.00;95069.09;5000583;28;20048;-91
2022/10/26 07:31:50;;;;;;;19.65;4.35;;;;;;;18.35;100.00;95083.44;5015897;28;20022;-92
2022/10/26 07:34:15;;;;;;;23.08;4.47;;;;;;;18.48;100.00;95085.28;5016385;28;20033;-90
2022/10/26 07:36:41;;;;;;;25.38;4.10;;;;;;;18.56;100.00;95090.97;5033614;28;20108;-90
2022/10/26 07:39:08;;;;;;;17.58;4.53;;;;;;;18.80;100.00;95093.31;5000371;28;20029;-89
2022/10/26 07:41:34;;;;;;;21.38;4.70;;;;;;;18.78;100.00;95080.34;4999326;28;20453;-89
2022/10/26 07:43:59;;;;;;;13.65;3.90;;;;;;;18.86;100.00;95086.03;5024986;28;20021;-89
2022/10/26 07:46:25;;;;;;;19.05;4.20;;;;;;;18.84;100.00;95082.91;5016698;28;20339;-90
2022/10/26 07:48:51;;;;;;;12.75;4.07;;;;;;;18.87;100.00;95085.75;5018264;28;20037;-90
2022/10/26 07:51:16;;;;;;;22.75;4.63;;;;;;;18.69;100.00;95082.16;5015307;28;20048;-89
2022/10/26 07:53:42;;;;;;;18.45;3.97;;;;;;;18.93;100.00;95083.72;5015613;28;20351;-90
2022/10/26 07:56:09;;;;;;;17.63;4.32;;;;;;;19.26;100.00;95082.69;5019195;28;20031;-90
2022/10/26 07:58:35;;;;;;;16.25;4.28;;;;;;;19.27;100.00;95085.06;5034961;28;20437;-89
2022/10/26 08:01:14;;;;;;;22.83;4.15;;;;;;;19.01;100.00;95093.66;5055216;28;20039;-90
2022/10/26 08:03:48;;;;;;;20.70;3.95;;;;;;;19.00;100.00;95092.09;5037227;28;20025;-90
2022/10/26 08:06:13;;;;;;;20.35;4.22;;;;;;;19.02;100.00;95099.75;5042195;28;20032;-90
2022/10/26 08:08:38;;;;;;;17.00;4.10;;;;;;;18.92;100.00;95101.53;5023442;28;20056;-89
2022/10/26 08:11:05;;;;;;;27.02;4.72;;;;;;;18.93;100.00;95097.78;5004875;28;20033;-88
2022/10/26 08:13:31;;;;;;;13.77;3.33;;;;;;;19.28;100.00;95093.78;5021749;28;20036;-89
2022/10/26 08:16:05;;;;;;;15.13;3.80;;;;;;;19.45;100.00;95087.78;5005807;28;20333;-90
2022/10/26 08:18:31;;;;;;;15.55;3.65;;;;;;;19.61;100.00;95088.94;5002256;28;20072;-89
2022/10/26 08:21:11;;;;;;;17.02;4.40;;;;;;;19.56;100.00;95093.59;5028898;28;20048;-92
2022/10/26 08:23:40;;;;;;;18.20;3.92;;;;;;;19.64;100.00;95090.22;5025819;28;20090;-92
2022/10/26 08:26:16;;;;;;;13.82;3.75;;;;;;;19.73;100.00;95083.06;5025934;28;20032;-93
2022/10/26 08:28:47;;;;;;;10.40;3.60;;;;;;;19.88;100.00;95084.50;5026641;28;20029;-90
2022/10/26 08:31:15;;;;;;;14.23;3.40;;;;;;;19.84;100.00;95083.56;5015214;28;20048;-92
2022/10/26 08:33:42;;;;;;;13.85;3.70;;;;;;;19.87;100.00;95085.59;5021499;28;20453;-89
2022/10/26 08:36:08;;;;;;;13.70;3.40;;;;;;;20.02;100.00;95086.28;5022098;28;20442;-88
2022/10/26 08:38:35;;;;;;;19.27;3.75;;;;;;;19.95;100.00;95085.97;5005264;28;20025;-89
2022/10/26 08:41:08;;;;;;;14.88;3.25;;;;;;;20.25;100.00;95084.28;5005591;28;20464;-89
2022/10/26 08:43:41;;;;;;;17.10;3.70;;;;;;;20.00;100.00;95083.91;5039330;28;20025;-91
2022/10/26 08:46:14;;;;;;;19.55;3.90;;;;;;;20.01;100.00;95087.38;5021475;28;20044;-90
2022/10/26 08:49:07;;;;;;;20.63;3.75;;;;;;;19.80;100.00;95084.47;5005494;28;20342;-89
2022/10/26 08:51:37;;;;;;;12.52;3.50;;;;;;;20.25;100.00;95089.59;5005202;28;20461;-87
2022/10/26 08:54:13;;;;;;;15.68;4.05;;;;;;;20.17;100.00;95082.41;5020893;28;20434;-86
2022/10/26 08:56:57;;;;;;;21.75;3.30;;;;;;;20.30;100.00;95086.81;4985179;28;20033;-86
2022/10/26 08:59:29;;;;;;;24.65;3.58;;;;;;;20.48;100.00;95092.13;5016393;28;20037;-85
2022/10/26 09:01:54;;;;;;;20.52;3.97;;;;;;;20.56;100.00;95090.56;5038021;28;20080;-86
2022/10/26 09:04:26;;;;;;;17.63;3.70;;;;;;;20.79;100.00;95082.41;5038256;28;20025;-86
2022/10/26 09:07:17;;;;;;;16.95;3.83;;;;;;;20.91;100.00;95082.56;5020665;28;20025;-86
2022/10/26 09:09:49;;;;;;;20.10;4.05;;;;;;;21.08;100.00;95094.28;5004541;28;20032;-85
2022/10/26 09:12:20;;;;;;;17.65;3.78;;;;;;;21.01;100.00;95094.78;5020228;28;20318;-86
2022/10/26 09:14:48;;;;;;;17.25;3.72;;;;;;;21.00;100.00;95080.69;5004381;28;20037;-86
2022/10/26 09:17:23;;;;;;;23.25;4.32;;;;;;;21.20;100.00;95086.44;5019613;28;20033;-86
2022/10/26 09:20:00;;;;;;;21.00;3.42;;;;;;;21.21;100.00;95092.56;5038120;28;20103;-86
2022/10/26 09:22:48;;;;;;;14.48;2.95;;;;;;;21.46;100.00;95093.56;5020127;28;20033;-87
2022/10/26 09:25:20;;;;;;;23.73;3.90;;;;;;;21.20;100.00;95091.75;5006186;28;20421;-87
2022/10/26 09:27:49;;;;;;;18.95;4.75;;;;;;;21.54;100.00;95100.78;5004091;28;20084;-87
2022/10/26 09:30:18;;;;;;;18.27;3.30;;;;;;;21.49;100.00;95098.25;5014249;28;20501;-87
2022/10/26 09:32:56;;;;;;;9.73;3.30;;;;;;;21.33;96.00;95103.34;5018611;28;20030;-87
2022/10/26 09:35:43;;;;;;;19.17;3.15;;;;;;;21.67;97.75;95100.91;5016833;28;20030;-87
2022/10/26 09:38:23;;;;;;;20.73;3.58;;;;;;;21.68;100.00;95102.47;5001239;28;20046;-86
2022/10/26 09:40:57;;;;;;;17.90;3.15;;;;;;;21.72;95.89;95109.50;5017801;28;20029;-87
2022/10/26 09:43:31;;;;;;;20.10;3.10;;;;;;;21.89;98.66;95105.97;5000671;28;20449;-87
2022/10/26 09:45:57;;;;;;;20.30;3.58;;;;;;;22.11;97.99;95104.13;5000594;28;20415;-87
2022/10/26 09:48:38;;;;;;;17.48;3.63;;;;;;;22.07;99.50;95115.78;5018397;28;20090;-88
2022/10/26 09:51:04;;;;;;;18.65;3.63;;;;;;;22.14;95.02;95114.16;5003928;28;20029;-87
2022/10/26 09:53:30;;;;;;;18.83;3.80;;;;;;;22.16;98.63;95119.16;5019838;28;20091;-87
2022/10/26 09:56:16;;;;;;;22.38;3.97;;;;;;;22.31;98.51;95115.94;5003504;28;20057;-88
2022/10/26 09:58:45;;;;;;;21.08;3.97;;;;;;;22.33;95.14;95123.63;5003046;28;20064;-87
2022/10/26 10:01:32;;;;;;;23.42;3.72;;;;;;;22.22;95.47;95130.44;5019644;28;20079;-88
2022/10/26 10:04:12;;;;;;;12.65;3.83;;;;;;;22.47;94.42;95128.72;5019872;28;20418;-87
2022/10/26 10:06:42;;;;;;;24.13;3.60;;;;;;;22.41;94.50;95128.13;5037243;28;20426;-87
2022/10/26 10:09:19;;;;;;;26.90;4.55;;;;;;;22.34;90.20;95127.09;5003815;28;20030;-88
2022/10/26 10:11:55;;;;;;;16.13;3.15;;;;;;;22.67;93.91;95129.06;5003650;28;20033;-87
2022/10/26 10:14:24;;;;;;;21.83;3.95;;;;;;;22.63;93.56;95128.94;5019756;28;20052;-87
2022/10/26 10:16:57;;;;;;;15.80;3.45;;;;;;;22.84;92.10;95136.16;5019623;28;20033;-88
2022/10/26 10:19:34;;;;;;;20.02;3.55;;;;;;;22.91;87.37;95133.75;5037044;28;20429;-88
2022/10/26 10:22:15;;;;;;;16.38;3.65;;;;;;;22.97;84.02;95135.13;5019696;28;20052;-88
2022/10/26 10:24:45;;;;;;;14.60;4.05;;;;;;;23.05;86.61;95135.34;5036934;28;20040;-88
2022/10/26 10:27:19;;;;;;;19.73;3.70;;;;;;;22.87;86.20;95128.25;5019836;28;20331;-88
2022/10/26 10:29:54;;;;;;;16.70;3.80;;;;;;;23.09;83.52;95136.25;5019396;28;20033;-87
2022/10/26 10:32:30;;;;;;;19.45;3.78;;;;;;;23.10;85.61;95135.94;5019329;28;20346;-87
2022/10/26 10:34:57;;;;;;;22.40;3.42;;;;;;;23.20;84.05;95136.66;5019797;28;20029;-88
2022/10/26 10:37:35;;;;;;;18.02;3.53;;;;;;;23.23;84.65;95136.75;5003092;28;20033;-87
2022/10/26 10:40:03;;;;;;;22.67;3.28;;;;;;;23.08;81.66;95140.03;5004209;28;20049;-87
2022/10/26 10:42:33;;;;;;;16.83;3.65;;;;;;;23.44;82.06;95138.63;5036607;28;20029;-88
2022/10/26 10:44:59;;;;;;;16.85;3.53;;;;;;;23.43;81.10;95134.38;5003128;28;20040;-88
2022/10/26 10:47:28;;;;;;;29.33;3.65;;;;;;;23.52;77.24;95135.06;5028934;28;20033;-89
2022/10/26 10:49:57;;;;;;;30.33;3.80;;;;;;;23.60;77.71;95138.78;5022309;28;20119;-87
2022/10/26 10:52:25;;;;;;;15.27;3.58;;;;;;;23.12;77.37;95128.38;5002462;28;20132;-87
2022/10/26 10:54:56;;;;;;;18.85;3.20;;;;;;;23.30;77.29;95125.53;5019051;28;20117;-89
2022/10/26 10:57:31;;;;;;;19.13;3.67;;;;;;;23.50;75.94;95131.94;5003270;28;20432;-87
2022/10/26 11:00:05;;;;;;;23.65;4.05;;;;;;;23.49;74.90;95121.59;5002943;28;20029;-87
2022/10/26 11:02:36;;;;;;;18.27;3.47;;;;;;;23.54;74.93;95122.16;4999515;28;20076;-87
2022/10/26 11:05:20;;;;;;;25.15;3.92;;;;;;;23.50;74.68;95129.25;4999417;28;20351;-88
2022/10/26 11:08:49;;;;;;;22.80;3.85;;;;;;;23.61;73.17;95123.50;5026944;28;20037;-87
2022/10/26 11:11:39;;;;;;;19.15;3.67;;;;;;;23.39;73.48;95118.22;4945258;28;20049;-89
2022/10/26 11:14:07;;;;;;;24.90;3.50;;;;;;;23.39;73.28;95120.13;4999123;28;20431;-87
2022/10/26 11:16:37;;;;;;;15.80;3.50;;;;;;;23.70;72.76;95116.94;5019151;28;20046;-87
2022/10/26 11:19:07;;;;;;;18.45;3.53;;;;;;;23.82;72.24;95116.16;5018718;28;20029;-88
2022/10/26 11:21:39;;;;;;;18.48;3.53;;;;;;;23.65;74.12;95117.16;5018793;28;20039;-88
2022/10/26 11:24:16;;;;;;;20.83;3.72;;;;;;;23.97;72.40;95105.91;5003072;28;20022;-88
2022/10/26 11:26:46;;;;;;;28.35;3.92;;;;;;;24.06;69.13;95103.91;5018937;28;20057;-88
2022/10/26 11:29:18;;;;;;;18.58;3.70;;;;;;;24.19;70.05;95112.72;5018960;28;20445;-87
2022/10/26 11:31:50;;;;;;;18.77;3.95;;;;;;;24.22;68.70;95106.69;5018729;28;20037;-89
2022/10/26 11:34:19;;;;;;;14.88;3.15;;;;;;;24.47;73.05;95095.94;5019362;28;20025;-88
2022/10/26 11:36:48;;;;;;;19.45;3.70;;;;;;;24.33;68.42;95101.66;5019038;28;20029;-87
2022/10/26 11:39:19;;;;;;;33.95;4.22;;;;;;;23.66;70.47;95097.31;5003367;28;20311;-90
2022/10/26 11:42:06;;;;;;;23.02;3.65;;;;;;;23.92;71.66;95096.22;5022610;28;20323;-88
2022/10/26 11:44:39;;;;;;;17.15;3.90;;;;;;;24.14;73.01;95100.34;5006381;28;20039;-87
2022/10/26 11:47:07;;;;;;;;;;;;;;;24.62;72.06;95094.44;5006700;28;20025;-88
2022/10/26 11:50:17;;;;;;;21.75;3.65;;;;;;;24.71;67.02;95092.41;4995833;28;19936;-87
2022/10/26 11:52:50;;;;;;;19.52;3.35;;;;;;;24.18;64.65;95100.47;4940142;29;20055;-88
2022/10/26 11:55:16;;;;;;;16.95;3.30;;;;;;;24.14;68.28;95103.03;4940577;29;20356;-89
2022/10/26 11:57:45;;;;;;;23.50;3.80;;;;;;;23.66;67.91;95086.63;4964874;28;20487;-90